sensor_id;sensor_type;location;lat;lon;timestamp;pressure;altitude;pressure_sealevel;temperature;humidity
47636;BME280;33364;50.766;15.338;2022-08-18T00:01:02;94649.09;;;17.98;74.60
47636;BME280;33364;50.766;15.338;2022-08-18T00:03:28;94645.25;;;17.86;74.50
47636;BME280;33364;50.766;15.338;2022-08-18T00:05:55;94646.06;;;17.86;74.52
47636;BME280;33364;50.766;15.338;2022-08-18T00:08:20;94649.19;;;17.82;74.63
47636;BME280;33364;50.766;15.338;2022-08-18T00:10:46;94653.97;;;17.78;74.74
47636;BME280;33364;50.766;15.338;2022-08-18T00:13:12;94656.22;;;17.81;74.94
47636;BME280;33364;50.766;15.338;2022-08-18T00:15:37;94650.66;;;17.84;74.28
47636;BME280;33364;50.766;15.338;2022-08-18T00:18:03;94651.53;;;17.77;74.71
47636;BME280;33364;50.766;15.338;2022-08-18T00:20:28;94647.56;;;17.81;74.67
47636;BME280;33364;50.766;15.338;2022-08-18T00:22:54;94650.56;;;17.78;74.65
47636;BME280;33364;50.766;15.338;2022-08-18T00:25:23;94649.75;;;17.77;74.50
47636;BME280;33364;50.766;15.338;2022-08-18T00:27:49;94645.03;;;17.73;75.44
47636;BME280;33364;50.766;15.338;2022-08-18T00:30:17;94644.34;;;17.71;74.98
47636;BME280;33364;50.766;15.338;2022-08-18T00:32:48;94634.75;;;17.63;75.18
47636;BME280;33364;50.766;15.338;2022-08-18T00:35:17;94638.53;;;17.60;76.18
47636;BME280;33364;50.766;15.338;2022-08-18T00:37:46;94641.94;;;17.61;75.23
47636;BME280;33364;50.766;15.338;2022-08-18T00:40:17;94643.94;;;17.59;75.07
47636;BME280;33364;50.766;15.338;2022-08-18T00:42:47;94637.22;;;17.56;75.24
47636;BME280;33364;50.766;15.338;2022-08-18T00:45:22;94638.28;;;17.47;75.55
47636;BME280;33364;50.766;15.338;2022-08-18T00:47:49;94635.38;;;17.42;75.80
47636;BME280;33364;50.766;15.338;2022-08-18T00:50:20;94636.84;;;17.37;75.89
47636;BME280;33364;50.766;15.338;2022-08-18T00:52:59;94641.28;;;17.36;76.28
47636;BME280;33364;50.766;15.338;2022-08-18T00:55:28;94644.38;;;17.40;76.03
47636;BME280;33364;50.766;15.338;2022-08-18T00:57:59;94652.03;;;17.41;76.08
47636;BME280;33364;50.766;15.338;2022-08-18T01:00:27;94657.94;;;17.43;76.95
47636;BME280;33364;50.766;15.338;2022-08-18T01:02:56;94656.06;;;17.52;75.80
47636;BME280;33364;50.766;15.338;2022-08-18T01:05:30;94655.22;;;17.59;74.79
47636;BME280;33364;50.766;15.338;2022-08-18T01:07:58;94654.09;;;17.54;75.31
47636;BME280;33364;50.766;15.338;2022-08-18T01:10:24;94660.19;;;17.46;75.32
47636;BME280;33364;50.766;15.338;2022-08-18T01:12:55;94650.78;;;17.37;75.89
47636;BME280;33364;50.766;15.338;2022-08-18T01:15:23;94648.81;;;17.31;76.76
47636;BME280;33364;50.766;15.338;2022-08-18T01:17:49;94644.41;;;17.31;76.41
47636;BME280;33364;50.766;15.338;2022-08-18T01:20:40;94641.47;;;17.34;76.11
47636;BME280;33364;50.766;15.338;2022-08-18T01:23:27;94644.72;;;17.37;76.12
47636;BME280;33364;50.766;15.338;2022-08-18T01:25:55;94637.41;;;17.32;76.17
47636;BME280;33364;50.766;15.338;2022-08-18T01:28:34;94645.41;;;17.30;76.69
47636;BME280;33364;50.766;15.338;2022-08-18T01:31:01;94637.72;;;17.29;76.29
47636;BME280;33364;50.766;15.338;2022-08-18T01:33:31;94643.09;;;17.35;76.56
47636;BME280;33364;50.766;15.338;2022-08-18T01:35:59;94638.44;;;17.46;75.76
47636;BME280;33364;50.766;15.338;2022-08-18T01:38:27;94641.75;;;17.40;76.87
47636;BME280;33364;50.766;15.338;2022-08-18T01:40:52;94637.44;;;17.47;75.50
47636;BME280;33364;50.766;15.338;2022-08-18T01:43:19;94638.44;;;17.46;75.36
47636;BME280;33364;50.766;15.338;2022-08-18T01:45:45;94632.28;;;17.39;75.83
47636;BME280;33364;50.766;15.338;2022-08-18T01:48:11;94636.50;;;17.48;76.16
47636;BME280;33364;50.766;15.338;2022-08-18T01:50:38;94631.84;;;17.58;75.83
47636;BME280;33364;50.766;15.338;2022-08-18T01:53:05;94637.38;;;17.63;75.02
47636;BME280;33364;50.766;15.338;2022-08-18T01:55:33;94638.41;;;17.54;75.50
47636;BME280;33364;50.766;15.338;2022-08-18T01:57:59;94635.97;;;17.52;75.39
47636;BME280;33364;50.766;15.338;2022-08-18T02:00:26;94632.06;;;17.48;76.60
47636;BME280;33364;50.766;15.338;2022-08-18T02:02:52;94631.56;;;17.53;75.73
47636;BME280;33364;50.766;15.338;2022-08-18T02:05:23;94625.84;;;17.49;76.30
47636;BME280;33364;50.766;15.338;2022-08-18T02:07:52;94627.28;;;17.52;75.48
47636;BME280;33364;50.766;15.338;2022-08-18T02:10:18;94629.44;;;17.48;75.07
47636;BME280;33364;50.766;15.338;2022-08-18T02:12:44;94623.63;;;17.38;75.49
47636;BME280;33364;50.766;15.338;2022-08-18T02:15:10;94626.28;;;17.30;76.99
47636;BME280;33364;50.766;15.338;2022-08-18T02:17:41;94625.28;;;17.31;76.21
47636;BME280;33364;50.766;15.338;2022-08-18T02:20:09;94627.59;;;17.26;76.47
47636;BME280;33364;50.766;15.338;2022-08-18T02:22:36;94629.22;;;17.27;76.12
47636;BME280;33364;50.766;15.338;2022-08-18T02:25:03;94636.09;;;17.28;76.18
47636;BME280;33364;50.766;15.338;2022-08-18T02:27:29;94630.22;;;17.26;76.19
47636;BME280;33364;50.766;15.338;2022-08-18T02:29:54;94630.53;;;17.31;76.15
47636;BME280;33364;50.766;15.338;2022-08-18T02:32:20;94628.19;;;17.36;76.10
47636;BME280;33364;50.766;15.338;2022-08-18T02:34:46;94629.00;;;17.37;75.88
47636;BME280;33364;50.766;15.338;2022-08-18T02:37:11;94631.69;;;17.28;76.34
47636;BME280;33364;50.766;15.338;2022-08-18T02:39:37;94638.53;;;17.29;76.29
47636;BME280;33364;50.766;15.338;2022-08-18T02:42:06;94623.03;;;17.28;76.21
47636;BME280;33364;50.766;15.338;2022-08-18T02:44:32;94616.63;;;17.30;76.48
47636;BME280;33364;50.766;15.338;2022-08-18T02:46:58;94623.47;;;17.31;76.51
47636;BME280;33364;50.766;15.338;2022-08-18T02:49:24;94620.06;;;17.31;76.08
47636;BME280;33364;50.766;15.338;2022-08-18T02:51:51;94625.75;;;17.34;76.10
47636;BME280;33364;50.766;15.338;2022-08-18T02:54:21;94626.56;;;17.35;75.77
47636;BME280;33364;50.766;15.338;2022-08-18T02:56:51;94626.56;;;17.35;75.69
47636;BME280;33364;50.766;15.338;2022-08-18T02:59:24;94624.78;;;17.35;76.19
47636;BME280;33364;50.766;15.338;2022-08-18T03:01:54;94627.88;;;17.39;76.05
47636;BME280;33364;50.766;15.338;2022-08-18T03:04:26;94634.84;;;17.47;75.75
47636;BME280;33364;50.766;15.338;2022-08-18T03:06:53;94630.75;;;17.52;75.82
47636;BME280;33364;50.766;15.338;2022-08-18T03:09:21;94639.69;;;17.58;75.31
47636;BME280;33364;50.766;15.338;2022-08-18T03:11:47;94636.59;;;17.54;75.33
47636;BME280;33364;50.766;15.338;2022-08-18T03:14:13;94645.75;;;17.58;74.89
47636;BME280;33364;50.766;15.338;2022-08-18T03:16:41;94641.72;;;17.48;75.55
47636;BME280;33364;50.766;15.338;2022-08-18T03:19:07;94641.22;;;17.52;76.96
47636;BME280;33364;50.766;15.338;2022-08-18T03:21:33;94648.88;;;17.54;76.10
47636;BME280;33364;50.766;15.338;2022-08-18T03:24:03;94647.19;;;17.61;75.21
47636;BME280;33364;50.766;15.338;2022-08-18T03:26:30;94646.03;;;17.64;75.22
47636;BME280;33364;50.766;15.338;2022-08-18T03:28:57;94637.53;;;17.61;76.19
47636;BME280;33364;50.766;15.338;2022-08-18T03:31:27;94639.19;;;17.63;75.20
47636;BME280;33364;50.766;15.338;2022-08-18T03:33:55;94637.59;;;17.53;75.79
47636;BME280;33364;50.766;15.338;2022-08-18T03:36:23;94637.63;;;17.45;75.90
47636;BME280;33364;50.766;15.338;2022-08-18T03:38:50;94636.72;;;17.38;76.53
47636;BME280;33364;50.766;15.338;2022-08-18T03:41:18;94632.16;;;17.32;76.15
47636;BME280;33364;50.766;15.338;2022-08-18T03:43:44;94632.91;;;17.41;76.51
47636;BME280;33364;50.766;15.338;2022-08-18T03:46:13;94631.59;;;17.45;76.72
47636;BME280;33364;50.766;15.338;2022-08-18T03:48:40;94636.25;;;17.57;75.74
47636;BME280;33364;50.766;15.338;2022-08-18T03:51:13;94634.56;;;17.65;74.74
47636;BME280;33364;50.766;15.338;2022-08-18T03:53:40;94634.75;;;17.63;74.73
47636;BME280;33364;50.766;15.338;2022-08-18T03:56:08;94639.50;;;17.59;75.23
47636;BME280;33364;50.766;15.338;2022-08-18T03:58:53;94638.47;;;17.69;75.23
47636;BME280;33364;50.766;15.338;2022-08-18T04:01:31;94639.91;;;17.71;75.07
47636;BME280;33364;50.766;15.338;2022-08-18T04:04:03;94629.00;;;17.68;74.95
47636;BME280;33364;50.766;15.338;2022-08-18T04:06:32;94630.34;;;17.64;75.14
47636;BME280;33364;50.766;15.338;2022-08-18T04:09:03;94636.03;;;17.67;75.68
47636;BME280;33364;50.766;15.338;2022-08-18T04:11:31;94634.38;;;17.74;75.31
47636;BME280;33364;50.766;15.338;2022-08-18T04:13:57;94635.66;;;17.78;75.20
47636;BME280;33364;50.766;15.338;2022-08-18T04:16:24;94630.88;;;17.82;75.03
47636;BME280;33364;50.766;15.338;2022-08-18T04:18:50;94633.66;;;17.80;74.75
47636;BME280;33364;50.766;15.338;2022-08-18T04:21:15;94633.66;;;17.80;74.84
47636;BME280;33364;50.766;15.338;2022-08-18T04:23:41;94628.25;;;17.82;74.89
47636;BME280;33364;50.766;15.338;2022-08-18T04:26:08;94628.72;;;17.85;75.06
47636;BME280;33364;50.766;15.338;2022-08-18T04:28:34;94621.16;;;17.91;74.71
47636;BME280;33364;50.766;15.338;2022-08-18T04:31:09;94620.00;;;17.93;75.05
47636;BME280;33364;50.766;15.338;2022-08-18T04:33:36;94625.69;;;17.97;75.18
47636;BME280;33364;50.766;15.338;2022-08-18T04:36:07;94621.81;;;17.93;75.26
47636;BME280;33364;50.766;15.338;2022-08-18T04:38:33;94623.44;;;17.94;74.94
47636;BME280;33364;50.766;15.338;2022-08-18T04:40:59;94621.16;;;17.91;75.03
47636;BME280;33364;50.766;15.338;2022-08-18T04:43:25;94624.72;;;17.98;74.81
47636;BME280;33364;50.766;15.338;2022-08-18T04:45:50;94627.16;;;17.99;75.50
47636;BME280;33364;50.766;15.338;2022-08-18T04:48:16;94621.91;;;17.99;75.29
47636;BME280;33364;50.766;15.338;2022-08-18T04:50:42;94622.63;;;17.93;75.68
47636;BME280;33364;50.766;15.338;2022-08-18T04:53:08;94621.97;;;17.91;75.46
47636;BME280;33364;50.766;15.338;2022-08-18T04:55:54;94629.28;;;17.96;75.36
47636;BME280;33364;50.766;15.338;2022-08-18T04:58:21;94634.72;;;17.94;75.80
47636;BME280;33364;50.766;15.338;2022-08-18T05:00:56;94621.97;;;17.91;76.16
47636;BME280;33364;50.766;15.338;2022-08-18T05:03:23;94621.97;;;17.91;76.51
47636;BME280;33364;50.766;15.338;2022-08-18T05:05:56;94631.63;;;17.91;76.60
47636;BME280;33364;50.766;15.338;2022-08-18T05:08:26;94635.44;;;17.88;76.78
47636;BME280;33364;50.766;15.338;2022-08-18T05:10:54;94635.72;;;17.93;76.71
47636;BME280;33364;50.766;15.338;2022-08-18T05:13:19;94632.56;;;17.98;76.33
47636;BME280;33364;50.766;15.338;2022-08-18T05:15:54;94629.94;;;17.98;76.09
47636;BME280;33364;50.766;15.338;2022-08-18T05:18:23;94629.16;;;17.97;76.21
47636;BME280;33364;50.766;15.338;2022-08-18T05:20:50;94635.63;;;18.01;76.26
47636;BME280;33364;50.766;15.338;2022-08-18T05:23:16;94632.66;;;18.04;76.49
47636;BME280;33364;50.766;15.338;2022-08-18T05:25:42;94630.41;;;18.01;76.83
47636;BME280;33364;50.766;15.338;2022-08-18T05:28:08;94633.28;;;18.06;76.89
47636;BME280;33364;50.766;15.338;2022-08-18T05:30:34;94628.72;;;18.08;76.90
47636;BME280;33364;50.766;15.338;2022-08-18T05:33:01;94635.56;;;18.09;77.08
47636;BME280;33364;50.766;15.338;2022-08-18T05:35:35;94634.56;;;18.10;76.98
47636;BME280;33364;50.766;15.338;2022-08-18T05:40:58;94632.25;;;18.16;77.11
47636;BME280;33364;50.766;15.338;2022-08-18T05:43:26;94620.50;;;18.26;77.24
47636;BME280;33364;50.766;15.338;2022-08-18T05:45:52;94623.06;;;18.34;77.16
47636;BME280;33364;50.766;15.338;2022-08-18T05:48:18;94633.56;;;18.49;77.06
47636;BME280;33364;50.766;15.338;2022-08-18T05:50:44;94628.88;;;18.59;76.01
47636;BME280;33364;50.766;15.338;2022-08-18T05:53:13;94632.06;;;18.70;76.11
47636;BME280;33364;50.766;15.338;2022-08-18T05:55:59;94631.44;;;18.82;75.84
47636;BME280;33364;50.766;15.338;2022-08-18T05:58:49;94629.53;;;18.91;75.65
47636;BME280;33364;50.766;15.338;2022-08-18T06:01:19;94628.72;;;19.05;74.83
47636;BME280;33364;50.766;15.338;2022-08-18T06:03:52;94636.56;;;19.20;74.45
47636;BME280;33364;50.766;15.338;2022-08-18T06:06:26;94640.50;;;19.31;74.35
47636;BME280;33364;50.766;15.338;2022-08-18T06:11:20;94637.75;;;19.54;73.60
47636;BME280;33364;50.766;15.338;2022-08-18T06:13:45;94632.84;;;19.65;74.44
47636;BME280;33364;50.766;15.338;2022-08-18T06:19:03;94631.78;;;20.03;73.77
47636;BME280;33364;50.766;15.338;2022-08-18T06:32:45;94624.38;;;20.97;72.29
47636;BME280;33364;50.766;15.338;2022-08-18T06:35:26;94621.03;;;21.23;71.12
47636;BME280;33364;50.766;15.338;2022-08-18T06:43:36;94626.53;;;21.96;69.39
47636;BME280;33364;50.766;15.338;2022-08-18T06:46:18;94622.94;;;22.17;68.41
47636;BME280;33364;50.766;15.338;2022-08-18T06:48:59;94622.53;;;22.40;69.05
47636;BME280;33364;50.766;15.338;2022-08-18T06:51:27;94611.53;;;22.63;69.45
47636;BME280;33364;50.766;15.338;2022-08-18T06:54:00;94619.81;;;22.86;67.20
47636;BME280;33364;50.766;15.338;2022-08-18T06:56:33;94613.72;;;23.06;67.64
47636;BME280;33364;50.766;15.338;2022-08-18T06:59:31;94607.72;;;23.30;67.12
47636;BME280;33364;50.766;15.338;2022-08-18T07:02:00;94609.03;;;23.52;65.58
47636;BME280;33364;50.766;15.338;2022-08-18T07:04:42;94611.00;;;23.70;64.92
47636;BME280;33364;50.766;15.338;2022-08-18T07:07:23;94612.28;;;23.93;64.77
47636;BME280;33364;50.766;15.338;2022-08-18T07:09:53;94600.69;;;24.19;64.98
47636;BME280;33364;50.766;15.338;2022-08-18T07:12:25;94603.44;;;24.37;64.22
47636;BME280;33364;50.766;15.338;2022-08-18T07:14:55;94612.59;;;24.60;62.77
47636;BME280;33364;50.766;15.338;2022-08-18T07:17:30;94606.25;;;24.86;62.39
47636;BME280;33364;50.766;15.338;2022-08-18T07:20:00;94611.50;;;25.11;60.92
47636;BME280;33364;50.766;15.338;2022-08-18T07:22:26;94607.78;;;25.30;59.43
47636;BME280;33364;50.766;15.338;2022-08-18T07:24:54;94612.78;;;25.56;58.81
47636;BME280;33364;50.766;15.338;2022-08-18T07:27:38;94614.16;;;25.77;59.54
47636;BME280;33364;50.766;15.338;2022-08-18T07:38:16;94641.72;;;26.30;55.16
47636;BME280;33364;50.766;15.338;2022-08-18T07:40:45;94636.72;;;26.52;53.14
47636;BME280;33364;50.766;15.338;2022-08-18T07:43:35;94635.44;;;26.78;51.44
47636;BME280;33364;50.766;15.338;2022-08-18T07:46:16;94634.53;;;26.84;54.64
47636;BME280;33364;50.766;15.338;2022-08-18T07:48:44;94645.59;;;26.93;50.76
47636;BME280;33364;50.766;15.338;2022-08-18T07:51:21;94644.34;;;27.07;46.78
47636;BME280;33364;50.766;15.338;2022-08-18T07:54:11;94647.56;;;27.32;43.95
47636;BME280;33364;50.766;15.338;2022-08-18T07:59:34;94647.78;;;27.83;43.10
47636;BME280;33364;50.766;15.338;2022-08-18T08:07:16;94651.06;;;28.47;41.92
47636;BME280;33364;50.766;15.338;2022-08-18T08:12:37;94652.75;;;28.53;41.17
47636;BME280;33364;50.766;15.338;2022-08-18T08:16:07;94649.75;;;28.50;42.26
47636;BME280;33364;50.766;15.338;2022-08-18T08:21:14;94637.41;;;28.60;41.70
47636;BME280;33364;50.766;15.338;2022-08-18T08:24:39;94638.22;;;28.61;42.90
47636;BME280;33364;50.766;15.338;2022-08-18T08:29:39;94636.19;;;28.34;41.00
47636;BME280;33364;50.766;15.338;2022-08-18T08:32:29;94636.56;;;28.26;41.23
47636;BME280;33364;50.766;15.338;2022-08-18T08:35:00;94636.16;;;28.18;41.95
47636;BME280;33364;50.766;15.338;2022-08-18T08:40:49;94615.34;;;28.31;41.17
47636;BME280;33364;50.766;15.338;2022-08-18T08:43:20;94625.06;;;28.37;41.32
47636;BME280;33364;50.766;15.338;2022-08-18T08:46:06;94618.69;;;28.38;42.02
47636;BME280;33364;50.766;15.338;2022-08-18T08:48:39;94616.44;;;28.47;41.85
47636;BME280;33364;50.766;15.338;2022-08-18T08:53:48;94620.63;;;28.60;41.06
47636;BME280;33364;50.766;15.338;2022-08-18T08:56:20;94621.03;;;28.69;41.72
47636;BME280;33364;50.766;15.338;2022-08-18T08:58:56;94615.97;;;28.67;39.87
47636;BME280;33364;50.766;15.338;2022-08-18T09:01:26;94615.56;;;28.58;40.62
47636;BME280;33364;50.766;15.338;2022-08-18T09:04:16;94606.84;;;28.63;42.89
47636;BME280;33364;50.766;15.338;2022-08-18T09:09:50;94608.75;;;28.51;40.80
47636;BME280;33364;50.766;15.338;2022-08-18T09:12:34;94619.03;;;28.59;39.90
47636;BME280;33364;50.766;15.338;2022-08-18T09:21:47;94594.44;;;29.29;39.37
47636;BME280;33364;50.766;15.338;2022-08-18T09:24:24;94591.56;;;29.80;37.70
47636;BME280;33364;50.766;15.338;2022-08-18T09:27:11;94585.72;;;29.83;37.89
47636;BME280;33364;50.766;15.338;2022-08-18T09:29:50;94583.78;;;30.05;38.66
47636;BME280;33364;50.766;15.338;2022-08-18T09:37:52;94576.78;;;30.58;36.39
47636;BME280;33364;50.766;15.338;2022-08-18T09:40:50;94562.38;;;30.64;36.85
47636;BME280;33364;50.766;15.338;2022-08-18T09:43:57;94557.31;;;30.63;37.00
47636;BME280;33364;50.766;15.338;2022-08-18T09:51:53;94540.69;;;30.98;35.66
47636;BME280;33364;50.766;15.338;2022-08-18T09:54:19;94545.41;;;31.28;34.66
47636;BME280;33364;50.766;15.338;2022-08-18T10:10:48;94520.94;;;32.33;31.33
47636;BME280;33364;50.766;15.338;2022-08-18T10:21:16;94527.38;;;32.17;31.84
47636;BME280;33364;50.766;15.338;2022-08-18T10:23:58;94519.88;;;32.24;31.27
47636;BME280;33364;50.766;15.338;2022-08-18T10:29:10;94509.69;;;32.46;30.96
47636;BME280;33364;50.766;15.338;2022-08-18T10:34:42;94510.16;;;32.84;31.49
47636;BME280;33364;50.766;15.338;2022-08-18T10:40:12;94506.91;;;32.87;29.48
47636;BME280;33364;50.766;15.338;2022-08-18T10:42:43;94514.47;;;32.70;30.26
47636;BME280;33364;50.766;15.338;2022-08-18T10:45:30;94521.44;;;32.66;30.76
47636;BME280;33364;50.766;15.338;2022-08-18T10:48:14;94504.47;;;33.01;31.33
47636;BME280;33364;50.766;15.338;2022-08-18T10:59:09;94496.16;;;33.03;28.62
47636;BME280;33364;50.766;15.338;2022-08-18T11:09:32;94485.19;;;33.93;28.53
47636;BME280;33364;50.766;15.338;2022-08-18T11:12:00;94494.47;;;33.71;28.90
47636;BME280;33364;50.766;15.338;2022-08-18T11:20:15;94500.78;;;33.91;30.54
47636;BME280;33364;50.766;15.338;2022-08-18T11:22:52;94500.19;;;34.04;30.54
47636;BME280;33364;50.766;15.338;2022-08-18T11:25:24;94506.16;;;32.77;31.30
47636;BME280;33364;50.766;15.338;2022-08-18T11:27:50;94505.38;;;31.69;32.69
47636;BME280;33364;50.766;15.338;2022-08-18T11:30:22;94510.69;;;31.43;33.86
47636;BME280;33364;50.766;15.338;2022-08-18T11:32:54;94506.03;;;31.13;33.75
47636;BME280;33364;50.766;15.338;2022-08-18T11:35:56;94509.13;;;30.90;34.35
47636;BME280;33364;50.766;15.338;2022-08-18T11:38:23;94509.59;;;31.39;33.99
47636;BME280;33364;50.766;15.338;2022-08-18T11:40:51;94509.44;;;31.92;33.03
47636;BME280;33364;50.766;15.338;2022-08-18T11:43:24;94514.72;;;31.61;33.41
47636;BME280;33364;50.766;15.338;2022-08-18T11:45:58;94525.63;;;31.34;34.47
47636;BME280;33364;50.766;15.338;2022-08-18T11:58:44;94511.50;;;31.49;33.61
47636;BME280;33364;50.766;15.338;2022-08-18T12:04:23;94519.78;;;31.53;34.08
47636;BME280;33364;50.766;15.338;2022-08-18T12:09:22;94529.59;;;31.27;34.27
47636;BME280;33364;50.766;15.338;2022-08-18T12:15:22;94527.50;;;30.81;34.43
47636;BME280;33364;50.766;15.338;2022-08-18T12:17:48;94525.16;;;30.90;35.50
47636;BME280;33364;50.766;15.338;2022-08-18T12:20:15;94518.47;;;30.92;33.47
47636;BME280;33364;50.766;15.338;2022-08-18T12:22:43;94517.19;;;31.00;32.30
47636;BME280;33364;50.766;15.338;2022-08-18T12:25:15;94505.34;;;31.43;30.98
47636;BME280;33364;50.766;15.338;2022-08-18T12:27:42;94508.06;;;31.69;30.78
47636;BME280;33364;50.766;15.338;2022-08-18T12:30:09;94511.31;;;31.96;31.04
47636;BME280;33364;50.766;15.338;2022-08-18T12:32:35;94515.06;;;32.36;30.44
47636;BME280;33364;50.766;15.338;2022-08-18T12:35:07;94523.88;;;32.47;30.84
47636;BME280;33364;50.766;15.338;2022-08-18T12:37:34;94513.72;;;32.23;30.19
47636;BME280;33364;50.766;15.338;2022-08-18T12:40:00;94523.88;;;32.16;29.80
47636;BME280;33364;50.766;15.338;2022-08-18T12:42:26;94518.50;;;31.76;29.90
47636;BME280;33364;50.766;15.338;2022-08-18T12:44:52;94518.41;;;31.40;31.58
47636;BME280;33364;50.766;15.338;2022-08-18T12:47:21;94506.69;;;31.61;31.67
47636;BME280;33364;50.766;15.338;2022-08-18T12:49:48;94504.31;;;31.75;31.13
47636;BME280;33364;50.766;15.338;2022-08-18T12:52:15;94494.91;;;31.57;31.34
47636;BME280;33364;50.766;15.338;2022-08-18T12:54:41;94498.13;;;31.49;31.61
47636;BME280;33364;50.766;15.338;2022-08-18T12:57:19;94490.63;;;31.51;31.76
47636;BME280;33364;50.766;15.338;2022-08-18T12:59:45;94486.88;;;31.62;31.72
47636;BME280;33364;50.766;15.338;2022-08-18T13:02:11;94487.94;;;31.46;32.10
47636;BME280;33364;50.766;15.338;2022-08-18T13:04:37;94484.91;;;31.22;32.57
47636;BME280;33364;50.766;15.338;2022-08-18T13:07:03;94481.19;;;31.23;33.54
47636;BME280;33364;50.766;15.338;2022-08-18T13:09:31;94485.97;;;31.21;33.32
47636;BME280;33364;50.766;15.338;2022-08-18T13:11:57;94483.81;;;31.03;32.30
47636;BME280;33364;50.766;15.338;2022-08-18T13:14:22;94479.50;;;31.02;33.46
47636;BME280;33364;50.766;15.338;2022-08-18T13:16:48;94487.16;;;30.78;33.33
47636;BME280;33364;50.766;15.338;2022-08-18T13:19:14;94489.75;;;30.67;33.84
47636;BME280;33364;50.766;15.338;2022-08-18T13:21:40;94482.00;;;30.66;34.98
47636;BME280;33364;50.766;15.338;2022-08-18T13:24:07;94475.09;;;30.70;35.56
47636;BME280;33364;50.766;15.338;2022-08-18T13:26:37;94464.63;;;30.63;34.84
47636;BME280;33364;50.766;15.338;2022-08-18T13:29:04;94456.00;;;30.51;36.34
47636;BME280;33364;50.766;15.338;2022-08-18T13:31:30;94459.72;;;30.45;36.45
47636;BME280;33364;50.766;15.338;2022-08-18T13:33:57;94461.09;;;30.48;36.59
47636;BME280;33364;50.766;15.338;2022-08-18T13:36:25;94458.50;;;30.63;34.39
47636;BME280;33364;50.766;15.338;2022-08-18T13:38:51;94450.81;;;30.82;36.47
47636;BME280;33364;50.766;15.338;2022-08-18T13:41:20;94452.47;;;30.83;36.51
47636;BME280;33364;50.766;15.338;2022-08-18T13:43:46;94457.50;;;30.79;35.37
47636;BME280;33364;50.766;15.338;2022-08-18T13:46:15;94463.25;;;30.56;34.19
47636;BME280;33364;50.766;15.338;2022-08-18T13:48:42;94454.34;;;30.40;31.58
47636;BME280;33364;50.766;15.338;2022-08-18T13:51:13;94447.69;;;30.37;32.28
47636;BME280;33364;50.766;15.338;2022-08-18T13:53:41;94439.50;;;30.59;32.69
47636;BME280;33364;50.766;15.338;2022-08-18T13:56:07;94443.34;;;30.79;33.81
47636;BME280;33364;50.766;15.338;2022-08-18T13:58:35;94434.63;;;30.51;34.83
47636;BME280;33364;50.766;15.338;2022-08-18T14:01:04;94427.28;;;30.26;36.40
47636;BME280;33364;50.766;15.338;2022-08-18T14:03:32;94417.09;;;30.13;36.98
47636;BME280;33364;50.766;15.338;2022-08-18T14:06:00;94417.19;;;30.28;36.66
47636;BME280;33364;50.766;15.338;2022-08-18T14:08:28;94422.88;;;30.05;36.81
47636;BME280;33364;50.766;15.338;2022-08-18T14:10:58;94417.81;;;29.71;37.72
47636;BME280;33364;50.766;15.338;2022-08-18T14:13:25;94411.56;;;29.87;37.61
47636;BME280;33364;50.766;15.338;2022-08-18T14:15:53;94401.09;;;30.13;36.97
47636;BME280;33364;50.766;15.338;2022-08-18T14:18:21;94401.69;;;30.30;35.81
47636;BME280;33364;50.766;15.338;2022-08-18T14:20:46;94407.38;;;30.44;35.64
47636;BME280;33364;50.766;15.338;2022-08-18T14:23:31;94415.44;;;30.54;35.01
47636;BME280;33364;50.766;15.338;2022-08-18T14:26:19;94426.16;;;30.64;34.57
47636;BME280;33364;50.766;15.338;2022-08-18T14:29:04;94434.56;;;30.88;34.15
47636;BME280;33364;50.766;15.338;2022-08-18T14:31:31;94451.81;;;30.65;34.82
47636;BME280;33364;50.766;15.338;2022-08-18T14:33:57;94457.81;;;30.40;33.21
47636;BME280;33364;50.766;15.338;2022-08-18T14:36:24;94466.66;;;30.46;33.43
47636;BME280;33364;50.766;15.338;2022-08-18T14:38:50;94458.47;;;30.58;32.85
47636;BME280;33364;50.766;15.338;2022-08-18T14:41:15;94456.31;;;30.60;33.13
47636;BME280;33364;50.766;15.338;2022-08-18T14:43:42;94457.38;;;30.54;33.35
47636;BME280;33364;50.766;15.338;2022-08-18T14:46:10;94457.72;;;30.67;33.15
47636;BME280;33364;50.766;15.338;2022-08-18T14:48:37;94450.34;;;30.90;31.44
47636;BME280;33364;50.766;15.338;2022-08-18T14:51:03;94438.63;;;31.06;31.81
47636;BME280;33364;50.766;15.338;2022-08-18T14:53:30;94452.53;;;31.08;32.50
47636;BME280;33364;50.766;15.338;2022-08-18T14:55:58;94450.38;;;31.00;34.48
47636;BME280;33364;50.766;15.338;2022-08-18T14:58:28;94462.22;;;30.67;33.22
47636;BME280;33364;50.766;15.338;2022-08-18T15:00:55;94455.75;;;30.53;33.39
47636;BME280;33364;50.766;15.338;2022-08-18T15:03:21;94462.88;;;30.37;32.50
47636;BME280;33364;50.766;15.338;2022-08-18T15:05:48;94462.06;;;30.36;33.86
47636;BME280;33364;50.766;15.338;2022-08-18T15:08:14;94464.69;;;30.31;33.07
47636;BME280;33364;50.766;15.338;2022-08-18T15:10:40;94463.88;;;30.26;33.30
47636;BME280;33364;50.766;15.338;2022-08-18T15:13:06;94460.63;;;30.18;33.00
47636;BME280;33364;50.766;15.338;2022-08-18T15:15:33;94452.34;;;30.20;33.23
47636;BME280;33364;50.766;15.338;2022-08-18T15:17:59;94442.00;;;30.29;33.44
47636;BME280;33364;50.766;15.338;2022-08-18T15:20:26;94435.91;;;30.33;33.69
47636;BME280;33364;50.766;15.338;2022-08-18T15:22:52;94441.00;;;30.40;32.97
47636;BME280;33364;50.766;15.338;2022-08-18T15:25:37;94423.16;;;30.51;33.80
47636;BME280;33364;50.766;15.338;2022-08-18T15:28:19;94425.34;;;30.59;32.82
47636;BME280;33364;50.766;15.338;2022-08-18T15:30:48;94419.69;;;30.50;33.28
47636;BME280;33364;50.766;15.338;2022-08-18T15:33:14;94413.22;;;30.41;33.14
47636;BME280;33364;50.766;15.338;2022-08-18T15:35:41;94422.53;;;30.28;33.26